Flight Track Log - Related Links

Times and Time Zones

All times are in EDT time to prevent confusion due to time zone crossing. See the TRS943 flight status page for this flight to view local times or setup timezone preferences in your user account.

Time Position Orientation Groundspeed Altitude Reporting Facility
EDT Latitude Longitude Course Direction KTS MPH feet Rate Location/Type
Mon 09:51:49 AM 39.1833 -76.7500 270° West 199 229 2,100  Level Potomac TRACON
Mon 09:52:49 AM 39.1833 -76.8333 270° West 242 278 5,400 3,074 Climbing Potomac TRACON
Mon 09:53:50 AM 39.1833 -76.9167 282° West 243 280 8,300 2,430 Climbing Potomac TRACON
Mon 09:54:50 AM 39.2000 -77.0167 270° West 277 319 10,300 1,636 Climbing Potomac TRACON
Mon 09:55:51 AM 39.2000 -77.1333 224° Southwest 348 400 11,600 1,835 Climbing Potomac TRACON
Mon 09:56:51 AM 39.1333 -77.2167 218° Southwest 347 399 14,000 2,182 Climbing Potomac TRACON
Mon 09:57:52 AM 39.0500 -77.3000 212° Southwest 366 421 16,000 1,884 Climbing Potomac TRACON
Mon 09:58:52 AM 38.9667 -77.3667 204° Southwest 386 444 17,800 2,100 Climbing Potomac TRACON
Mon 09:59:52 AM 38.8500 -77.4333 201° Southwest 402 463 20,200 2,231 Climbing Potomac TRACON
Mon 10:00:53 AM 38.7500 -77.4833 218° Southwest 413 475 22,300 1,388 Climbing Potomac TRACON
Mon 10:01:53 AM 38.6667 -77.5667 219° Southwest 393 452 23,000 341 Climbing Potomac TRACON
Mon 10:02:56 AM 38.5767 -77.6603 219° Southwest 406 467 23,000 537 Level Washington Center
Mon 10:03:56 AM 38.4981 -77.7406 235° Southwest 406 467 24,100 1,240 Climbing Washington Center
Mon 10:04:57 AM 38.4333 -77.8606 235° Southwest 400 460 25,500 1,017 Climbing Washington Center
Mon 10:05:54 AM 38.3664 -77.9831 235° Southwest 419 482 26,100 756 Climbing Washington Center
Mon 10:06:56 AM 38.2969 -78.1078 234° Southwest 431 496 27,000 488 Climbing Washington Center
Mon 10:07:57 AM 38.2278 -78.2297 234° Southwest 431 496 27,100 793 Climbing Washington Center
Mon 10:08:57 AM 38.1581 -78.3539 234° Southwest 431 496 28,600 1,300 Climbing Washington Center
Mon 10:09:57 AM 38.0886 -78.4753 237° Southwest 436 502 29,700 1,373 Climbing Washington Center
Mon 10:10:55 AM 38.0250 -78.5994 234° Southwest 436 502 31,300 1,160 Climbing Washington Center
Mon 10:11:56 AM 37.9531 -78.7231 235° Southwest 431 496 32,000 344 Climbing Washington Center
Mon 10:12:57 AM 37.8786 -78.8567 234° Southwest 431 496 32,000  Level Washington Center
Mon 10:13:57 AM 37.8086 -78.9772 234° Southwest 431 496 32,000  Level Washington Center
Mon 10:14:55 AM 37.7383 -79.0975 232° Southwest 431 496 32,000  Level Washington Center
Mon 10:15:55 AM 37.6636 -79.2200 234° Southwest 439 505 32,000  Level Washington Center
Mon 10:16:56 AM 37.5997 -79.3322 233° Southwest 439 505 32,000  Level Washington Center
Mon 10:17:56 AM 37.5228 -79.4619 234° Southwest 439 505 32,000  Level Washington Center
Mon 10:18:57 AM 37.4586 -79.5739 234° Southwest 445 512 32,000  Level Washington Center
Mon 10:19:57 AM 37.3786 -79.7136 232° Southwest 450 518 32,000  Level Washington Center
Mon 10:20:55 AM 37.3122 -79.8222 234° Southwest 445 512 32,000  Level Washington Center
Mon 10:21:55 AM 37.2411 -79.9436 233° Southwest 445 512 32,000  Level Washington Center
Mon 10:23:52 AM 37.0967 -80.1800 233° Southwest 451 519 32,000  Level Atlanta Center
Mon 10:24:52 AM 37.0253 -80.3003 228° Southwest 451 519 32,000  Level Atlanta Center
Mon 10:25:52 AM 36.9433 -80.4158 227° Southwest 451 519 32,000  Level Atlanta Center
Mon 10:26:52 AM 36.8608 -80.5261 227° Southwest 446 513 32,000  Level Atlanta Center
Mon 10:27:52 AM 36.7686 -80.6492 227° Southwest 446 513 32,000  Level Atlanta Center
Mon 10:28:52 AM 36.6861 -80.7589 227° Southwest 436 502 32,000  Level Atlanta Center
Mon 10:29:52 AM 36.6014 -80.8711 227° Southwest 436 502 32,000  Level Atlanta Center
Mon 10:30:52 AM 36.5186 -80.9803 226° Southwest 436 502 32,000  Level Atlanta Center
Mon 10:31:52 AM 36.4317 -81.0919 228° Southwest 436 502 32,000  Level Atlanta Center
Mon 10:32:52 AM 36.3508 -81.2031 226° Southwest 436 502 32,000  Level Atlanta Center
Mon 10:33:52 AM 36.2636 -81.3144 226° Southwest 441 507 32,000  Level Atlanta Center
Mon 10:34:52 AM 36.1786 -81.4253 228° Southwest 441 507 32,000 -300 Level Atlanta Center
Mon 10:35:52 AM 36.0953 -81.5386 236° Southwest 441 507 31,400 -650 Descending Atlanta Center
Mon 10:36:52 AM 36.0269 -81.6639 245° Southwest 441 507 30,700 -650 Descending Atlanta Center
Mon 10:37:52 AM 35.9811 -81.7831 232° Southwest 436 502 30,100 -350 Descending Atlanta Center
Mon 10:38:52 AM 35.8939 -81.9189 225° Southwest 456 525 30,000 -50 Descending Atlanta Center
Mon 10:39:52 AM 35.8019 -82.0314 224° Southwest 461 531 30,000  Level Atlanta Center
Mon 10:40:52 AM 35.7222 -82.1256 223° Southwest 456 525 30,000  Level Atlanta Center
Mon 10:41:52 AM 35.6278 -82.2325 221° Southwest 456 525 30,000  Level Atlanta Center
Mon 10:42:52 AM 35.5311 -82.3342 221° Southwest 464 534 30,000 -200 Level Atlanta Center
Mon 10:43:52 AM 35.4325 -82.4381 222° Southwest 464 534 29,600 -500 Descending Atlanta Center
Mon 10:44:52 AM 35.3397 -82.5392 220° Southwest 464 534 29,000 -300 Descending Atlanta Center
Mon 10:45:52 AM 35.2325 -82.6478 222° Southwest 459 528 29,000 -100 Level Atlanta Center
Mon 10:46:52 AM 35.1397 -82.7511 220° Southwest 453 521 28,800 -450 Descending Atlanta Center
Mon 10:47:52 AM 35.0406 -82.8514 222° Southwest 460 529 28,100 -750 Descending Atlanta Center
Mon 10:48:52 AM 34.9456 -82.9542 220° Southwest 460 529 27,300 -800 Descending Atlanta Center
Mon 10:49:52 AM 34.8464 -83.0542 220° Southwest 465 535 26,500 -700 Descending Atlanta Center
Mon 10:50:52 AM 34.7594 -83.1436 222° Southwest 465 535 25,900 -700 Descending Atlanta Center
Mon 10:51:52 AM 34.6703 -83.2406 221° Southwest 448 516 25,100 -750 Descending Atlanta Center
Mon 10:52:52 AM 34.5792 -83.3375 220° Southwest 443 510 24,400 -1,150 Descending Atlanta Center
Mon 10:53:52 AM 34.4856 -83.4314 221° Southwest 433 498 22,800 -2,250 Descending Atlanta Center
Mon 10:54:52 AM 34.3964 -83.5253 221° Southwest 428 493 19,900 -2,850 Descending Atlanta Center
Mon 10:55:52 AM 34.3111 -83.6164 220° Southwest 418 481 17,100 5,050 Descending Atlanta Center
Mon 10:56:52 AM 34.2153 -83.7122 221° Southwest 409 471 30,000 -2,250 Climbing Atlanta Center
Mon 10:57:52 AM 34.1406 -83.7903 220° Southwest 389 448 12,600 -9,000 Descending Atlanta Center
Mon 10:58:52 AM 34.0717 -83.8608 221° Southwest 351 404 12,000 -900 Descending Atlanta Center
Mon 10:59:52 AM 34.0072 -83.9286 230° Southwest 321 369 10,800 -1,000 Descending Atlanta Center
Mon 11:00:52 AM 33.9550 -84.0036 238° Southwest 305 351 10,000 -600 Descending Atlanta Center
Mon 11:01:52 AM 33.9133 -84.0839 237° Southwest 291 335 9,600 -650 Descending Atlanta Center
Mon 11:02:52 AM 33.8797 -84.1464 233° Southwest 247 284 8,700 -1,050 Descending Atlanta Center
Mon 11:03:52 AM 33.8483 -84.1964 237° Southwest 220 253 7,500 -1,250 Descending Atlanta Center
Mon 11:04:52 AM 33.8192 -84.2514 221° Southwest 204 235 6,200 -750 Descending Atlanta Center
Mon 11:05:52 AM 33.7794 -84.2936 126° Southeast 198 228 6,000 -100 Descending Atlanta Center
Mon 11:06:52 AM 33.7481 -84.2411 89° East 154 177 6,000 -469 Level Atlanta Center
Mon 11:08:00 AM 33.7500 -84.1500 164° South 206 237 5,000 -492 Descending Atlanta TRACON
Mon 11:08:54 AM 33.7000 -84.1333 220° Southwest 225 259 5,000  Level Atlanta TRACON
Mon 11:09:54 AM 33.6667 -84.1667 253° West 188 216 5,000 -500 Level Atlanta TRACON
Mon 11:10:54 AM 33.6500 -84.2333 270° West 185 213 4,000 -1,000 Descending Atlanta TRACON
Mon 11:11:54 AM 33.6500 -84.3000 270° West 181 208 3,000 -950 Descending Atlanta TRACON
Mon 11:12:54 AM 33.6500 -84.3500 270° West 141 162 2,100 -789 Descending Atlanta TRACON
Mon 11:13:48 AM 33.6500 -84.3833 270° West 134 154 1,500 -667 Descending Atlanta TRACON

Login

Don't have an account? Register now (free) for customized features, flight alerts, and more!